createdAt,value
2022-07-26T00:01:02.471Z,12.20
2022-07-26T00:03:30.600Z,11.83
2022-07-26T00:05:58.741Z,12.73
2022-07-26T00:08:28.114Z,11.40
2022-07-26T00:10:56.312Z,12.80
2022-07-26T00:13:24.366Z,12.60
2022-07-26T00:15:56.166Z,11.13
2022-07-26T00:18:24.236Z,10.90
2022-07-26T00:20:52.835Z,10.33
2022-07-26T00:23:23.790Z,12.63
2022-07-26T00:25:53.156Z,11.47
2022-07-26T00:28:21.174Z,10.60
2022-07-26T00:30:49.452Z,11.10
2022-07-26T00:33:17.515Z,12.17
2022-07-26T00:35:45.634Z,12.63
2022-07-26T00:38:13.732Z,10.97
2022-07-26T00:40:41.779Z,12.40
2022-07-26T00:43:11.158Z,11.07
2022-07-26T00:45:39.239Z,10.73
2022-07-26T00:48:07.812Z,11.20
2022-07-26T00:50:36.456Z,10.20
2022-07-26T00:53:04.533Z,10.17
2022-07-26T00:55:33.271Z,10.07
2022-07-26T00:58:02.260Z,9.60
2022-07-26T01:00:31.580Z,9.53
2022-07-26T01:03:00.581Z,7.90
2022-07-26T01:05:29.127Z,8.50
2022-07-26T01:07:57.898Z,8.80
2022-07-26T01:10:26.708Z,9.20
2022-07-26T01:12:54.865Z,8.43
2022-07-26T01:15:23.314Z,8.20
2022-07-26T01:17:52.855Z,8.00
2022-07-26T01:20:21.043Z,7.90
2022-07-26T01:22:50.491Z,8.60
2022-07-26T01:25:28.633Z,8.40
2022-07-26T01:27:56.764Z,8.07
2022-07-26T01:30:24.815Z,6.97
2022-07-26T01:32:52.991Z,7.60
2022-07-26T01:35:21.219Z,8.17
2022-07-26T01:37:50.624Z,7.70
2022-07-26T01:40:18.859Z,7.13
2022-07-26T01:42:46.902Z,7.90
2022-07-26T01:45:14.925Z,8.23
2022-07-26T01:47:43.075Z,7.93
2022-07-26T01:50:12.197Z,7.83
2022-07-26T01:52:40.296Z,7.30
2022-07-26T01:55:10.734Z,7.37
2022-07-26T01:57:38.800Z,7.60
2022-07-26T02:00:08.540Z,6.50
2022-07-26T02:02:36.891Z,6.10
2022-07-26T02:05:05.552Z,5.63
2022-07-26T02:07:38.283Z,5.70
2022-07-26T02:10:10.022Z,5.50
2022-07-26T02:12:40.923Z,6.33
2022-07-26T02:15:10.508Z,6.10
2022-07-26T02:17:38.616Z,6.10
2022-07-26T02:20:08.635Z,4.87
2022-07-26T02:22:38.599Z,5.73
2022-07-26T02:25:07.489Z,5.90
2022-07-26T02:27:38.342Z,5.10
2022-07-26T02:30:07.227Z,5.33
2022-07-26T02:32:35.335Z,5.37
2022-07-26T02:35:03.300Z,5.70
2022-07-26T02:37:31.303Z,5.53
2022-07-26T02:40:06.515Z,5.77
2022-07-26T02:42:34.702Z,5.37
2022-07-26T02:45:04.265Z,5.37
2022-07-26T02:47:35.342Z,5.87
2022-07-26T02:50:03.394Z,5.57
2022-07-26T02:52:31.435Z,4.70
2022-07-26T02:54:59.584Z,5.37
2022-07-26T02:57:27.699Z,5.70
2022-07-26T02:59:56.220Z,4.57
2022-07-26T03:02:25.674Z,5.50
2022-07-26T03:04:53.755Z,4.63
2022-07-26T03:07:21.767Z,6.30
2022-07-26T03:09:49.748Z,5.50
2022-07-26T03:12:17.804Z,5.30
2022-07-26T03:14:45.892Z,5.80
2022-07-26T03:17:13.951Z,4.57
2022-07-26T03:19:43.470Z,5.60
2022-07-26T03:22:12.940Z,4.97
2022-07-26T03:24:40.945Z,4.63
2022-07-26T03:27:08.944Z,5.10
2022-07-26T03:29:37.605Z,4.40
2022-07-26T03:32:05.984Z,4.30
2022-07-26T03:34:34.472Z,4.57
2022-07-26T03:37:04.163Z,5.10
2022-07-26T03:39:32.408Z,5.20
2022-07-26T03:42:00.380Z,4.77
2022-07-26T03:44:28.425Z,4.40
2022-07-26T03:46:56.491Z,5.07
2022-07-26T03:49:24.535Z,4.67
2022-07-26T03:51:52.622Z,4.57
2022-07-26T03:54:22.011Z,4.80
2022-07-26T03:56:49.152Z,5.33
2022-07-26T03:59:18.524Z,4.53
2022-07-26T04:01:48.282Z,4.77
2022-07-26T04:04:18.399Z,3.67
2022-07-26T04:06:49.362Z,4.80
2022-07-26T04:09:18.619Z,4.33
2022-07-26T04:11:48.588Z,4.20
2022-07-26T04:14:17.400Z,3.87
2022-07-26T04:16:45.560Z,4.30
2022-07-26T04:19:13.939Z,4.70
2022-07-26T04:21:41.907Z,4.10
2022-07-26T04:24:10.847Z,4.10
2022-07-26T04:26:39.046Z,4.67
2022-07-26T04:29:08.443Z,5.00
2022-07-26T04:31:39.050Z,5.33
2022-07-26T04:34:07.775Z,5.17
2022-07-26T04:36:35.995Z,4.60
2022-07-26T04:39:04.203Z,4.87
2022-07-26T04:41:32.258Z,5.23
2022-07-26T04:44:00.209Z,4.70
2022-07-26T04:46:29.638Z,5.13
2022-07-26T04:48:57.718Z,5.00
2022-07-26T04:51:26.478Z,4.43
2022-07-26T04:53:54.601Z,5.43
2022-07-26T04:56:22.893Z,5.33
2022-07-26T04:58:51.640Z,4.80
2022-07-26T05:01:19.761Z,5.50
2022-07-26T05:03:49.320Z,4.90
2022-07-26T05:06:17.636Z,4.60
2022-07-26T05:08:45.783Z,4.63
2022-07-26T05:11:13.776Z,4.27
2022-07-26T05:13:41.832Z,210.17
2022-07-26T05:16:11.950Z,390.07
2022-07-26T05:18:48.634Z,145.93
2022-07-26T05:21:19.503Z,188.70
2022-07-26T05:23:47.549Z,35.43
2022-07-26T05:26:16.056Z,28.50
2022-07-26T05:28:44.444Z,16.13
2022-07-26T05:31:12.612Z,120.07
2022-07-26T05:33:40.660Z,70.63
2022-07-26T05:36:09.455Z,112.07
2022-07-26T05:38:39.106Z,229.93
2022-07-26T05:41:07.461Z,271.07
2022-07-26T05:43:41.678Z,47.13
2022-07-26T05:46:11.283Z,41.93
2022-07-26T05:48:39.622Z,16.60
2022-07-26T05:51:07.943Z,21.50
2022-07-26T05:53:36.029Z,42.13
2022-07-26T05:56:06.464Z,8.13
2022-07-26T05:58:34.432Z,10.33
2022-07-26T06:01:02.419Z,5.97
2022-07-26T06:03:31.971Z,5.27
2022-07-26T06:06:00.363Z,5.77
2022-07-26T06:08:28.436Z,6.07
2022-07-26T06:10:56.846Z,6.53
2022-07-26T06:13:26.330Z,7.23
2022-07-26T06:15:54.540Z,7.93
2022-07-26T06:18:22.809Z,5.20
2022-07-26T06:20:51.799Z,5.80
2022-07-26T06:23:30.994Z,5.93
2022-07-26T06:26:03.609Z,5.43
2022-07-26T06:28:33.423Z,6.20
2022-07-26T06:31:01.548Z,5.90
2022-07-26T06:33:29.581Z,5.93
2022-07-26T06:35:57.608Z,6.00
2022-07-26T06:38:25.830Z,4.93
2022-07-26T06:40:54.004Z,5.87
2022-07-26T06:43:23.325Z,5.90
2022-07-26T06:45:53.055Z,5.93
2022-07-26T06:48:21.052Z,5.57
2022-07-26T06:50:49.993Z,5.60
2022-07-26T06:53:18.318Z,5.60
2022-07-26T06:55:46.310Z,5.47
2022-07-26T06:58:14.352Z,5.13
2022-07-26T07:00:42.490Z,6.37
2022-07-26T07:03:11.933Z,6.97
2022-07-26T07:05:40.133Z,5.97
2022-07-26T07:08:08.183Z,6.03
2022-07-26T07:10:38.474Z,5.70
2022-07-26T07:13:06.606Z,4.90
2022-07-26T07:15:34.731Z,5.70
2022-07-26T07:18:02.712Z,5.63
2022-07-26T07:20:32.133Z,5.10
2022-07-26T07:23:00.146Z,5.50
2022-07-26T07:25:34.393Z,5.10
2022-07-26T07:28:02.695Z,5.97
2022-07-26T07:30:30.720Z,6.20
2022-07-26T07:32:58.815Z,5.70
2022-07-26T07:35:31.997Z,6.10
2022-07-26T07:38:02.485Z,5.63
2022-07-26T07:40:30.715Z,5.80
2022-07-26T07:42:59.252Z,5.87
2022-07-26T07:45:27.284Z,5.70
2022-07-26T07:47:55.716Z,6.00
2022-07-26T07:50:27.106Z,5.90
2022-07-26T07:52:57.931Z,5.60
2022-07-26T07:55:46.538Z,5.70
2022-07-26T07:58:17.468Z,5.13
2022-07-26T08:00:48.507Z,6.20
2022-07-26T08:03:17.729Z,5.50
2022-07-26T08:05:46.813Z,6.10
2022-07-26T08:08:18.493Z,6.00
2022-07-26T08:10:52.239Z,6.10
2022-07-26T08:13:21.677Z,5.30
2022-07-26T08:15:50.276Z,5.90
2022-07-26T08:18:18.396Z,5.60
2022-07-26T08:20:49.847Z,5.60
2022-07-26T08:23:17.927Z,6.00
2022-07-26T08:25:56.210Z,6.17
2022-07-26T08:28:46.354Z,6.00
2022-07-26T08:31:14.682Z,5.93
2022-07-26T08:33:46.437Z,6.07
2022-07-26T08:36:15.460Z,6.00
2022-07-26T08:38:43.655Z,5.80
2022-07-26T08:41:13.049Z,6.57
2022-07-26T08:43:51.005Z,6.20
2022-07-26T08:46:25.312Z,6.07
2022-07-26T08:48:55.274Z,7.07
2022-07-26T08:51:26.152Z,5.87
2022-07-26T08:54:02.277Z,7.40
2022-07-26T08:56:36.595Z,8.63
2022-07-26T08:59:19.575Z,8.47
2022-07-26T09:01:56.843Z,7.57
2022-07-26T09:04:37.554Z,8.43
2022-07-26T09:07:13.695Z,7.30
2022-07-26T09:09:58.507Z,7.70
2022-07-26T09:12:30.021Z,7.50
2022-07-26T09:14:58.850Z,5.60
2022-07-26T09:17:39.603Z,6.70
2022-07-26T09:20:10.896Z,7.00
2022-07-26T09:22:39.797Z,7.03
2022-07-26T09:25:22.447Z,7.03
2022-07-26T09:27:52.829Z,6.43
2022-07-26T09:30:21.412Z,7.60
2022-07-26T09:33:02.445Z,6.60
2022-07-26T09:35:51.173Z,6.60
2022-07-26T09:38:20.427Z,9.63
2022-07-26T09:40:51.399Z,7.37
2022-07-26T09:43:24.144Z,7.27
2022-07-26T09:46:06.053Z,6.57
2022-07-26T09:49:06.964Z,6.60
2022-07-26T09:51:39.914Z,7.00
2022-07-26T09:54:08.883Z,5.80
2022-07-26T09:56:49.217Z,7.43
2022-07-26T09:59:20.132Z,6.80
2022-07-26T10:01:48.769Z,6.90
2022-07-26T10:04:17.878Z,7.17
2022-07-26T10:06:46.311Z,6.87
2022-07-26T10:09:15.794Z,6.73
2022-07-26T10:11:48.756Z,6.97
2022-07-26T10:14:38.819Z,6.60
2022-07-26T10:17:45.766Z,7.10
2022-07-26T10:20:58.760Z,7.40
2022-07-26T10:23:51.288Z,7.10
2022-07-26T10:26:43.322Z,7.50
2022-07-26T10:29:26.462Z,8.13
2022-07-26T10:32:15.509Z,6.70
2022-07-26T10:34:44.339Z,6.80
2022-07-26T10:37:22.159Z,7.40
2022-07-26T10:39:50.351Z,6.70
2022-07-26T10:42:18.451Z,6.37
2022-07-26T10:44:46.504Z,6.97
2022-07-26T10:47:18.637Z,7.43
2022-07-26T10:49:58.668Z,7.03
2022-07-26T10:52:28.161Z,7.23
2022-07-26T10:55:18.002Z,8.47
2022-07-26T10:57:50.226Z,7.60
2022-07-26T11:00:24.316Z,7.90
2022-07-26T11:03:01.067Z,8.33
2022-07-26T11:05:32.039Z,9.60
2022-07-26T11:08:05.255Z,13.27
2022-07-26T11:10:34.763Z,13.50
2022-07-26T11:13:05.475Z,14.60
2022-07-26T11:15:33.637Z,15.67
2022-07-26T11:18:11.790Z,15.63
2022-07-26T11:20:39.947Z,19.33
2022-07-26T11:23:23.992Z,29.50
2022-07-26T11:26:06.874Z,33.30
2022-07-26T11:28:55.984Z,46.70
2022-07-26T11:31:48.160Z,46.07
2022-07-26T11:34:21.986Z,44.90
2022-07-26T11:36:52.125Z,41.23
2022-07-26T11:39:24.084Z,41.53
2022-07-26T11:41:57.556Z,36.77
2022-07-26T11:44:26.016Z,37.93
2022-07-26T11:46:54.557Z,32.33
2022-07-26T11:49:51.977Z,30.00
2022-07-26T11:52:15.481Z,25.57
2022-07-26T11:54:53.937Z,22.93
2022-07-26T11:57:22.167Z,23.60
2022-07-26T11:59:51.450Z,22.80
2022-07-26T12:02:21.885Z,21.70
2022-07-26T12:05:11.435Z,19.90
2022-07-26T12:07:39.568Z,20.37
2022-07-26T12:10:08.427Z,19.70
2022-07-26T12:12:36.839Z,21.10
2022-07-26T12:15:07.049Z,20.20
2022-07-26T12:17:35.857Z,18.07
2022-07-26T12:20:17.440Z,18.20
2022-07-26T12:22:55.883Z,18.43
2022-07-26T12:25:28.182Z,17.93
2022-07-26T12:27:56.249Z,17.40
2022-07-26T12:30:25.774Z,13.50
2022-07-26T12:33:02.865Z,15.80
2022-07-26T12:35:35.522Z,15.70
2022-07-26T12:38:04.024Z,16.97
2022-07-26T12:40:41.027Z,15.60
2022-07-26T12:43:09.979Z,16.17
2022-07-26T12:45:38.140Z,16.40
2022-07-26T12:48:10.939Z,16.10
2022-07-26T12:50:40.484Z,15.97
2022-07-26T12:53:12.642Z,14.17
2022-07-26T12:55:41.072Z,15.20
2022-07-26T12:58:09.889Z,13.33
2022-07-26T13:00:37.959Z,15.20
2022-07-26T13:03:05.993Z,14.43
2022-07-26T13:05:34.126Z,13.43
2022-07-26T13:08:03.458Z,14.97
2022-07-26T13:10:34.537Z,14.90
2022-07-26T13:13:03.624Z,15.87
2022-07-26T13:15:35.277Z,16.20
2022-07-26T13:18:04.793Z,15.57
2022-07-26T13:20:32.832Z,18.00
2022-07-26T13:23:03.551Z,16.33
2022-07-26T13:25:34.015Z,16.33
2022-07-26T13:28:06.540Z,19.00
2022-07-26T13:30:34.632Z,17.07
2022-07-26T13:33:02.740Z,18.00
2022-07-26T13:35:30.820Z,18.07
2022-07-26T13:37:58.954Z,18.97
2022-07-26T13:40:31.555Z,17.20
2022-07-26T13:43:00.611Z,17.40
2022-07-26T13:45:29.604Z,16.40
2022-07-26T13:47:58.790Z,17.20
2022-07-26T13:50:27.723Z,19.33
2022-07-26T13:52:56.359Z,19.17
2022-07-26T13:55:25.482Z,17.93
2022-07-26T13:57:56.809Z,17.27
2022-07-26T14:00:25.925Z,16.83
2022-07-26T14:02:54.116Z,18.17
2022-07-26T14:05:22.399Z,20.27
2022-07-26T14:07:50.535Z,18.87
2022-07-26T14:10:18.856Z,19.17
2022-07-26T14:12:47.714Z,17.77
2022-07-26T14:15:22.044Z,18.40
2022-07-26T14:17:51.054Z,16.13
2022-07-26T14:20:19.345Z,17.07
2022-07-26T14:22:48.281Z,17.03
2022-07-26T14:25:16.323Z,16.63
2022-07-26T14:27:44.328Z,16.57
2022-07-26T14:30:13.861Z,17.50
2022-07-26T14:32:43.473Z,15.83
2022-07-26T14:35:11.872Z,16.90
2022-07-26T14:37:44.438Z,16.17
2022-07-26T14:40:15.659Z,17.07
2022-07-26T14:42:43.977Z,19.47
2022-07-26T14:45:12.308Z,19.50
2022-07-26T14:47:40.621Z,20.53
2022-07-26T14:50:11.876Z,17.97
2022-07-26T14:52:40.896Z,17.47
2022-07-26T14:55:10.305Z,17.77
2022-07-26T14:57:39.770Z,15.20
2022-07-26T15:00:10.202Z,16.50
2022-07-26T15:02:40.842Z,15.70
2022-07-26T15:05:11.630Z,14.87
2022-07-26T15:07:40.788Z,14.10
2022-07-26T15:10:10.826Z,14.73
2022-07-26T15:12:39.576Z,14.13
2022-07-26T15:15:08.940Z,15.37
2022-07-26T15:17:37.868Z,15.20
2022-07-26T15:20:07.562Z,15.10
2022-07-26T15:22:37.684Z,13.40
2022-07-26T15:25:06.471Z,12.10
2022-07-26T15:27:34.496Z,11.37
2022-07-26T15:30:06.975Z,9.13
2022-07-26T15:32:38.459Z,8.33
2022-07-26T15:35:07.492Z,8.70
2022-07-26T15:37:44.829Z,8.43
2022-07-26T15:40:13.865Z,8.20
2022-07-26T15:42:45.664Z,7.80
2022-07-26T15:45:14.710Z,5.30
2022-07-26T15:47:54.258Z,5.83
2022-07-26T15:50:24.201Z,5.10
2022-07-26T15:52:53.680Z,5.00
2022-07-26T15:55:21.836Z,6.90
2022-07-26T15:57:49.917Z,5.53
2022-07-26T16:00:18.599Z,5.13
2022-07-26T16:02:47.002Z,7.30
2022-07-26T16:05:15.386Z,5.43
2022-07-26T16:07:43.532Z,6.83
2022-07-26T16:10:14.972Z,5.50
2022-07-26T16:12:43.379Z,6.77
2022-07-26T16:15:12.628Z,6.33
2022-07-26T16:17:41.232Z,4.93
2022-07-26T16:20:09.801Z,7.57
2022-07-26T16:22:41.373Z,7.17
2022-07-26T16:25:13.884Z,8.20
2022-07-26T16:27:43.195Z,4.93
2022-07-26T16:30:13.144Z,4.93
2022-07-26T16:32:41.433Z,5.53
2022-07-26T16:35:10.515Z,4.80
2022-07-26T16:37:38.607Z,4.80
2022-07-26T16:40:08.636Z,4.87
2022-07-26T16:42:38.126Z,4.77
2022-07-26T16:45:06.730Z,4.70
2022-07-26T16:47:34.691Z,5.70
2022-07-26T16:50:04.333Z,5.77
2022-07-26T16:52:32.699Z,5.97
2022-07-26T16:55:01.171Z,5.53
2022-07-26T16:57:29.126Z,4.90
2022-07-26T16:59:58.567Z,5.20
2022-07-26T17:02:26.620Z,5.90
2022-07-26T17:04:57.148Z,6.20
2022-07-26T17:07:26.257Z,5.33
2022-07-26T17:09:55.609Z,5.97
2022-07-26T17:12:24.403Z,5.73
2022-07-26T17:14:53.076Z,5.80
2022-07-26T17:17:22.585Z,5.60
2022-07-26T17:19:50.995Z,5.67
2022-07-26T17:22:19.133Z,5.10
2022-07-26T17:24:47.916Z,6.80
2022-07-26T17:27:15.973Z,5.10
2022-07-26T17:29:44.476Z,5.23
2022-07-26T17:32:12.584Z,4.87
2022-07-26T17:34:42.585Z,6.00
2022-07-26T17:37:10.799Z,7.00
2022-07-26T17:39:50.779Z,6.30
2022-07-26T17:42:21.509Z,5.23
2022-07-26T17:44:49.793Z,5.90
2022-07-26T17:47:27.454Z,6.07
2022-07-26T17:50:19.465Z,18.97
2022-07-26T17:52:50.135Z,13.20
2022-07-26T17:55:19.605Z,12.20
2022-07-26T17:57:48.160Z,10.37
2022-07-26T18:00:17.483Z,23.73
2022-07-26T18:02:45.894Z,16.23
2022-07-26T18:05:15.725Z,20.40
2022-07-26T18:07:43.793Z,29.83
2022-07-26T18:10:12.072Z,12.77
2022-07-26T18:12:40.164Z,9.93
2022-07-26T18:15:09.198Z,13.03
2022-07-26T18:17:37.740Z,14.60
2022-07-26T18:20:07.230Z,15.60
2022-07-26T18:22:36.667Z,9.80
2022-07-26T18:25:05.526Z,9.27
2022-07-26T18:27:34.367Z,7.30
2022-07-26T18:30:02.371Z,6.17
2022-07-26T18:32:30.531Z,5.93
2022-07-26T18:34:58.565Z,5.77
2022-07-26T18:37:26.735Z,5.40
2022-07-26T18:39:58.101Z,5.50
2022-07-26T18:42:26.351Z,5.93
2022-07-26T18:44:56.692Z,6.20
2022-07-26T18:47:24.764Z,6.10
2022-07-26T18:49:52.782Z,5.60
2022-07-26T18:52:28.932Z,5.40
2022-07-26T18:55:02.516Z,5.47
2022-07-26T18:57:30.610Z,6.30
2022-07-26T18:59:58.640Z,6.10
2022-07-26T19:02:26.914Z,6.10
2022-07-26T19:04:55.073Z,6.70
2022-07-26T19:07:23.083Z,6.37
2022-07-26T19:09:55.060Z,5.60
2022-07-26T19:12:28.303Z,5.57
2022-07-26T19:14:56.591Z,5.50
2022-07-26T19:17:24.611Z,6.00
2022-07-26T19:19:52.811Z,6.77
2022-07-26T19:22:23.274Z,5.70
2022-07-26T19:24:51.495Z,6.10
2022-07-26T19:27:19.661Z,5.27
2022-07-26T19:29:49.685Z,6.57
2022-07-26T19:32:17.981Z,5.87
2022-07-26T19:34:48.172Z,6.43
2022-07-26T19:37:21.023Z,7.40
2022-07-26T19:39:49.755Z,7.27
2022-07-26T19:42:18.323Z,6.87
2022-07-26T19:44:47.890Z,6.43
2022-07-26T19:47:15.964Z,7.50
2022-07-26T19:49:44.011Z,6.73
2022-07-26T19:52:12.261Z,7.60
2022-07-26T19:54:40.975Z,7.33
2022-07-26T19:57:09.219Z,8.00
2022-07-26T19:59:37.234Z,7.87
2022-07-26T20:02:06.949Z,7.90
2022-07-26T20:04:35.048Z,7.97
2022-07-26T20:07:04.377Z,8.47
2022-07-26T20:09:32.826Z,6.50
2022-07-26T20:12:01.462Z,7.80
2022-07-26T20:14:29.677Z,6.83
2022-07-26T20:16:58.151Z,7.70
2022-07-26T20:19:28.130Z,7.33
2022-07-26T20:21:56.334Z,7.17
2022-07-26T20:24:24.522Z,7.93
2022-07-26T20:26:52.521Z,7.47
2022-07-26T20:29:20.625Z,7.40
2022-07-26T20:31:48.595Z,6.43
2022-07-26T20:34:16.635Z,8.03
2022-07-26T20:36:46.640Z,7.50
2022-07-26T20:39:15.385Z,7.47
2022-07-26T20:41:43.457Z,7.30
2022-07-26T20:44:12.322Z,7.30
2022-07-26T20:46:41.776Z,7.20
2022-07-26T20:49:10.806Z,7.07
2022-07-26T20:51:39.679Z,7.80
2022-07-26T20:54:10.217Z,7.90
2022-07-26T20:56:38.615Z,7.30
2022-07-26T20:59:07.294Z,7.13
2022-07-26T21:01:35.888Z,7.50
2022-07-26T21:04:04.107Z,6.80
2022-07-26T21:06:33.171Z,7.93
2022-07-26T21:09:09.557Z,7.40
2022-07-26T21:11:41.299Z,8.43
2022-07-26T21:14:09.324Z,7.90
2022-07-26T21:16:38.060Z,7.77
2022-07-26T21:19:06.528Z,7.20
2022-07-26T21:21:36.968Z,7.87
2022-07-26T21:24:05.811Z,7.50
2022-07-26T21:26:33.962Z,6.40
2022-07-26T21:29:03.299Z,7.00
2022-07-26T21:31:31.364Z,7.20
2022-07-26T21:33:59.839Z,6.90
2022-07-26T21:36:28.085Z,7.70
2022-07-26T21:38:56.053Z,7.27
2022-07-26T21:41:24.317Z,7.10
2022-07-26T21:43:52.405Z,7.50
2022-07-26T21:46:21.916Z,8.10
2022-07-26T21:48:50.072Z,7.37
2022-07-26T21:51:18.111Z,6.50
2022-07-26T21:53:46.923Z,6.33
2022-07-26T21:56:15.303Z,7.13
2022-07-26T21:58:43.348Z,6.97
2022-07-26T22:01:12.679Z,6.43
2022-07-26T22:03:43.412Z,8.50
2022-07-26T22:06:11.855Z,7.20
2022-07-26T22:08:40.468Z,6.80
2022-07-26T22:11:08.490Z,7.50
2022-07-26T22:13:36.726Z,8.03
2022-07-26T22:16:05.174Z,7.70
2022-07-26T22:18:33.395Z,6.70
2022-07-26T22:21:02.719Z,6.80
2022-07-26T22:23:31.037Z,7.60
2022-07-26T22:25:59.937Z,8.33
2022-07-26T22:28:28.119Z,7.43
2022-07-26T22:30:56.409Z,7.67
2022-07-26T22:33:24.690Z,6.90
2022-07-26T22:35:53.330Z,7.00
2022-07-26T22:38:22.866Z,7.40
2022-07-26T22:40:51.151Z,7.33
2022-07-26T22:43:19.168Z,7.30
2022-07-26T22:45:47.237Z,6.70
2022-07-26T22:48:15.308Z,7.00
2022-07-26T22:50:44.191Z,6.70
2022-07-26T22:53:12.340Z,8.33
2022-07-26T22:55:42.016Z,8.23
2022-07-26T22:58:10.166Z,7.90
2022-07-26T23:00:38.242Z,7.40
2022-07-26T23:03:13.225Z,8.00
2022-07-26T23:05:49.568Z,7.03
2022-07-26T23:11:07.869Z,7.70
2022-07-26T23:13:35.872Z,8.20
2022-07-26T23:16:04.022Z,7.30
2022-07-26T23:18:32.343Z,7.73
2022-07-26T23:21:01.706Z,8.00
2022-07-26T23:23:31.799Z,9.10
2022-07-26T23:26:00.235Z,8.57
2022-07-26T23:28:36.781Z,8.90
2022-07-26T23:31:07.773Z,7.70
2022-07-26T23:33:52.293Z,8.93
2022-07-26T23:36:26.196Z,8.70
2022-07-26T23:38:55.180Z,8.40
2022-07-26T23:41:23.141Z,9.10
2022-07-26T23:43:52.850Z,8.50
2022-07-26T23:46:21.265Z,8.90
2022-07-26T23:48:49.687Z,8.10
2022-07-26T23:51:17.778Z,8.00
2022-07-26T23:53:45.923Z,9.60
2022-07-26T23:56:14.047Z,8.80
2022-07-26T23:58:42.303Z,9.50
